Airfield :
LOGIN :

Register | Disclaimer

   EN    FR    IT 

 










Legend :    VFR   Marginal VFR   IFR   Intensive IFR   Very Intensive IFR
Visi :
Ceiling :
>= 8 km
>= 3000ft
5 to 8 km
1000 to 3000 ft
1500m to 5 km
500 to 1000 ft
800 to 1500m
200 to 500 ft
< 800m
< 200 ft
Symbols :   Thunderstorms  Fog  Heavy snow  Heavy precipitations  Wind > 20 kt
SIGMETs :     Misc.  Thunderstorms  Icing  Turbulence  Mountain Waves  Volcanic Ashes






- Airport Elevation : 194 ft


EBCV - Chièvres

CURRENT METAR :
  • 121355Z AUTO 18015KT 9999 FEW018/// OVC056/// 05/02 Q0997 BLU

EXPIRED METARs :
  • 121325Z AUTO 18016KT 9999 FEW016/// BKN066/// 05/02 Q0998 BLU
  • 121255Z AUTO 18017KT 9999 BKN015/// BKN097/// 04/02 Q0998 WHT
  • 121233Z AUTO 18015KT 9999 SCT015/// BKN084/// 05/02 Q1000 WHT
  • 121155Z AUTO 18015KT 9999 FEW015/// SCT086/// 04/02 Q1000 BLU
  • 121125Z AUTO 18014KT 9999 NCD 05/02 Q1000 BLU
  • 121055Z AUTO 19013KT 9999 SCT130/// 05/02 Q1002 BLU

TAF TAF EBCV
Valid from the 12 at 07:00 until the 12 at 16:00 UTC


120541Z 1207/1216 22012KT 9999 FEW015
PROB30
TEMPO 1207/1210 SCT012
BECMG 1215/1216 18015G25KT SCT015 BKN020



MET'MAP, your aeronautical weather chart ! - Copyright ORBIFLY December 2007 - Disclaimer

ORBIFLY MET'MAP TEAM :

Programming & Development : Alexandra Zaïnal
Concept & original design : Baudouin d'Aumeries
Assistance for programming : Marc-Olivier Méhu
Technical & hardware support : Manuel Goepfert

Contact : metmap@orbifly.com




SOURCES & CREDITS :

   NOAA